createdAt,value
2022-08-05T00:04:01.648Z,23.61
2022-08-05T00:08:19.813Z,23.58
2022-08-05T00:12:30.543Z,23.54
2022-08-05T00:16:36.215Z,23.51
2022-08-05T00:20:56.686Z,23.50
2022-08-05T00:25:01.808Z,23.48
2022-08-05T00:29:07.946Z,23.45
2022-08-05T00:34:42.474Z,23.42
2022-08-05T00:37:52.324Z,23.37
2022-08-05T00:41:58.831Z,23.34
2022-08-05T00:46:02.892Z,23.28
2022-08-05T00:50:09.238Z,23.26
2022-08-05T00:54:13.665Z,23.23
2022-08-05T00:58:19.186Z,23.21
2022-08-05T01:02:24.410Z,23.18
2022-08-05T01:06:32.684Z,23.12
2022-08-05T01:10:52.376Z,23.06
2022-08-05T01:15:05.257Z,22.99
2022-08-05T01:19:56.933Z,22.95
2022-08-05T01:24:13.276Z,22.90
2022-08-05T01:28:26.322Z,22.87
2022-08-05T01:32:33.862Z,22.83
2022-08-05T01:36:46.918Z,22.79
2022-08-05T01:40:52.513Z,22.76
2022-08-05T01:44:59.205Z,22.71
2022-08-05T01:49:23.156Z,22.66
2022-08-05T01:53:57.251Z,22.60
2022-08-05T01:58:10.299Z,22.56
2022-08-05T02:02:28.417Z,22.51
2022-08-05T02:06:37.370Z,22.45
2022-08-05T02:10:46.119Z,22.42
2022-08-05T02:14:55.216Z,22.38
2022-08-05T02:19:07.024Z,22.32
2022-08-05T02:23:13.583Z,22.28
2022-08-05T02:27:20.748Z,22.23
2022-08-05T02:31:37.052Z,22.18
2022-08-05T02:35:57.504Z,22.11
2022-08-05T02:40:06.889Z,22.06
2022-08-05T02:44:15.767Z,22.02
2022-08-05T02:48:20.934Z,22.00
2022-08-05T02:52:35.212Z,21.99
2022-08-05T02:56:40.132Z,21.98
2022-08-05T03:00:50.391Z,21.98
2022-08-05T03:04:56.638Z,21.98
2022-08-05T03:09:02.070Z,21.99
2022-08-05T03:13:16.744Z,21.98
2022-08-05T03:17:20.764Z,21.97
2022-08-05T03:21:28.857Z,21.95
2022-08-05T03:26:04.859Z,21.93
2022-08-05T03:30:07.222Z,21.92
2022-08-05T03:34:11.917Z,21.90
2022-08-05T03:38:15.804Z,21.88
2022-08-05T03:42:20.449Z,21.85
2022-08-05T03:46:26.853Z,21.81
2022-08-05T03:50:43.180Z,21.79
2022-08-05T03:55:00.072Z,21.76
2022-08-05T03:59:23.129Z,21.72
2022-08-05T04:03:31.164Z,21.65
2022-08-05T04:07:46.769Z,21.59
2022-08-05T04:12:01.562Z,21.54
2022-08-05T04:16:08.010Z,21.51
2022-08-05T04:20:21.313Z,21.53
2022-08-05T04:24:27.749Z,21.53
2022-08-05T04:28:31.826Z,21.56
2022-08-05T04:32:37.754Z,21.60
2022-08-05T04:36:46.108Z,21.63
2022-08-05T04:40:55.179Z,21.70
2022-08-05T04:44:58.826Z,21.75
2022-08-05T04:49:06.212Z,21.81
2022-08-05T04:53:19.346Z,21.86
2022-08-05T04:57:24.249Z,21.94
2022-08-05T05:02:07.117Z,22.02
2022-08-05T05:06:35.807Z,22.11
2022-08-05T05:10:23.743Z,22.20
2022-08-05T05:14:31.462Z,22.29
2022-08-05T05:18:35.945Z,22.37
2022-08-05T05:22:43.944Z,22.46
2022-08-05T05:26:47.993Z,22.56
2022-08-05T05:30:55.795Z,22.66
2022-08-05T05:34:59.015Z,22.76
2022-08-05T05:39:04.503Z,22.87
2022-08-05T05:43:08.561Z,22.97
2022-08-05T05:47:21.653Z,23.07
2022-08-05T05:51:27.888Z,23.19
2022-08-05T05:55:51.589Z,23.30
2022-08-05T05:59:57.731Z,23.43
2022-08-05T06:04:03.727Z,23.57
2022-08-05T06:08:07.675Z,23.68
2022-08-05T06:12:14.200Z,23.80
2022-08-05T06:16:28.742Z,23.93
2022-08-05T06:20:35.685Z,24.06
2022-08-05T06:24:46.652Z,24.21
2022-08-05T06:28:52.809Z,24.41
2022-08-05T06:32:56.642Z,24.58
2022-08-05T06:37:00.499Z,24.81
2022-08-05T06:41:05.298Z,25.07
2022-08-05T06:45:20.999Z,25.40
2022-08-05T06:50:00.552Z,25.79
2022-08-05T06:53:53.468Z,26.33
2022-08-05T06:58:11.753Z,26.89
2022-08-05T07:02:22.824Z,27.62
2022-08-05T07:06:27.709Z,28.36
2022-08-05T07:10:32.619Z,29.11
2022-08-05T07:14:54.196Z,29.85
2022-08-05T07:18:58.833Z,30.64
2022-08-05T07:23:03.009Z,31.35
2022-08-05T07:27:08.835Z,32.01
2022-08-05T07:31:41.032Z,32.64
2022-08-05T07:36:04.336Z,33.29
2022-08-05T07:40:32.558Z,33.84
2022-08-05T07:44:35.752Z,34.36
2022-08-05T07:49:02.810Z,34.79
2022-08-05T07:53:05.938Z,35.15
2022-08-05T07:57:22.860Z,35.38
2022-08-05T08:01:34.563Z,35.69
2022-08-05T08:05:39.569Z,35.94
2022-08-05T08:09:44.827Z,36.23
2022-08-05T08:14:01.146Z,36.57
2022-08-05T08:18:09.733Z,36.93
2022-08-05T08:22:17.766Z,37.28
2022-08-05T08:26:29.354Z,37.54
2022-08-05T08:30:40.703Z,37.78
2022-08-05T08:34:51.168Z,38.01
2022-08-05T08:38:55.996Z,38.21
2022-08-05T08:45:19.384Z,38.40
2022-08-05T08:48:06.745Z,38.60
2022-08-05T08:52:04.149Z,38.79
2022-08-05T08:56:10.161Z,38.96
2022-08-05T09:00:15.917Z,39.08
2022-08-05T09:04:23.187Z,39.11
2022-08-05T09:08:34.738Z,39.16
2022-08-05T09:12:40.404Z,39.10
2022-08-05T09:16:49.021Z,39.01
2022-08-05T09:20:52.452Z,38.87
2022-08-05T09:25:00.331Z,38.80
2022-08-05T09:29:06.740Z,38.81
2022-08-05T09:33:15.205Z,38.99
2022-08-05T09:38:12.173Z,39.11
2022-08-05T09:41:59.828Z,39.25
2022-08-05T09:46:06.960Z,39.38
2022-08-05T09:50:18.015Z,39.60
2022-08-05T09:54:37.682Z,39.75
2022-08-05T09:58:43.963Z,39.81
2022-08-05T10:02:54.884Z,39.91
2022-08-05T10:07:06.128Z,40.11
2022-08-05T10:11:31.305Z,40.32
2022-08-05T10:15:42.105Z,40.50
2022-08-05T10:20:04.207Z,40.68
2022-08-05T10:24:14.017Z,40.86
2022-08-05T10:28:30.307Z,41.01
2022-08-05T10:32:53.604Z,41.15
2022-08-05T10:36:58.247Z,41.28
2022-08-05T10:41:12.458Z,41.36
2022-08-05T10:45:23.363Z,41.41
2022-08-05T10:49:49.005Z,41.44
2022-08-05T10:54:01.618Z,41.49
2022-08-05T10:58:11.860Z,41.57
2022-08-05T11:02:37.877Z,41.58
2022-08-05T11:07:08.446Z,41.61
2022-08-05T11:11:44.426Z,41.56
2022-08-05T11:16:22.918Z,41.55
2022-08-05T11:20:44.758Z,41.58
2022-08-05T11:25:01.552Z,41.58
2022-08-05T11:29:38.279Z,41.56
2022-08-05T11:33:55.862Z,41.55
2022-08-05T11:38:28.357Z,41.65
2022-08-05T11:42:27.939Z,41.71
2022-08-05T11:46:34.447Z,41.65
2022-08-05T11:50:42.633Z,41.74
2022-08-05T11:54:55.016Z,41.85
2022-08-05T11:58:59.097Z,41.98
2022-08-05T12:03:29.086Z,42.07
2022-08-05T12:08:08.669Z,42.10
2022-08-05T12:12:02.601Z,42.08
2022-08-05T12:16:15.028Z,42.19
2022-08-05T12:20:27.758Z,42.31
2022-08-05T12:24:43.730Z,42.39
2022-08-05T12:28:53.281Z,42.44
2022-08-05T12:33:07.278Z,42.43
2022-08-05T12:37:22.543Z,42.44
2022-08-05T12:41:43.575Z,42.51
2022-08-05T12:45:55.137Z,42.58
2022-08-05T12:50:04.494Z,42.57
2022-08-05T12:54:16.576Z,42.56
2022-08-05T12:58:49.311Z,42.54
2022-08-05T13:02:55.670Z,42.63
2022-08-05T13:07:00.580Z,42.78
2022-08-05T13:11:05.101Z,42.86
2022-08-05T13:15:16.561Z,42.85
2022-08-05T13:19:52.196Z,42.71
2022-08-05T13:23:52.392Z,42.61
2022-08-05T13:27:57.607Z,42.57
2022-08-05T13:32:04.282Z,42.58
2022-08-05T13:36:09.157Z,42.69
2022-08-05T13:40:35.584Z,42.78
2022-08-05T13:44:39.136Z,42.80
2022-08-05T13:48:57.850Z,42.67
2022-08-05T13:53:03.471Z,42.51
2022-08-05T13:57:13.002Z,42.38
2022-08-05T14:01:18.730Z,42.32
2022-08-05T14:05:29.269Z,42.37
2022-08-05T14:09:47.053Z,42.48
2022-08-05T14:13:54.920Z,42.46
2022-08-05T14:18:00.692Z,42.37
2022-08-05T14:22:09.901Z,42.29
2022-08-05T14:26:35.792Z,42.15
2022-08-05T14:30:39.348Z,42.00
2022-08-05T14:34:49.381Z,41.78
2022-08-05T14:38:57.513Z,41.59
2022-08-05T14:43:01.071Z,41.40
2022-08-05T14:47:04.746Z,41.27
2022-08-05T14:51:15.453Z,41.13
2022-08-05T14:55:21.203Z,41.02
2022-08-05T14:59:25.329Z,40.88
2022-08-05T15:03:39.037Z,40.78
2022-08-05T15:08:06.681Z,40.62
2022-08-05T15:12:16.543Z,40.48
2022-08-05T15:16:30.259Z,40.36
2022-08-05T15:20:33.333Z,40.25
2022-08-05T15:24:39.742Z,40.12
2022-08-05T15:28:44.879Z,39.98
2022-08-05T15:32:55.678Z,39.80
2022-08-05T15:37:03.463Z,39.66
2022-08-05T15:41:21.129Z,39.50
2022-08-05T15:45:38.538Z,39.31
2022-08-05T15:49:56.605Z,39.00
2022-08-05T15:54:02.213Z,38.70
2022-08-05T15:58:16.507Z,38.41
2022-08-05T16:02:25.415Z,38.17
2022-08-05T16:06:30.062Z,38.01
2022-08-05T16:10:33.764Z,37.91
2022-08-05T16:14:37.258Z,37.87
2022-08-05T16:18:52.747Z,37.88
2022-08-05T16:22:57.450Z,37.92
2022-08-05T16:27:02.525Z,37.97
2022-08-05T16:31:07.525Z,38.01
2022-08-05T16:35:15.957Z,38.00
2022-08-05T16:39:21.692Z,37.83
2022-08-05T16:43:44.833Z,37.57
2022-08-05T16:47:54.390Z,37.28
2022-08-05T16:52:02.844Z,36.91
2022-08-05T16:56:08.549Z,36.55
2022-08-05T17:00:33.992Z,36.13
2022-08-05T17:04:38.108Z,35.77
2022-08-05T17:08:53.111Z,35.48
2022-08-05T17:12:57.849Z,35.19
2022-08-05T17:17:02.692Z,34.90
2022-08-05T17:21:06.126Z,34.61
2022-08-05T17:25:33.910Z,34.34
2022-08-05T17:29:40.969Z,34.04
2022-08-05T17:33:48.472Z,33.78
2022-08-05T17:37:54.258Z,33.52
2022-08-05T17:42:19.843Z,33.31
2022-08-05T17:46:30.984Z,33.12
2022-08-05T17:50:34.278Z,32.98
2022-08-05T17:54:38.123Z,32.88
2022-08-05T17:58:43.172Z,32.77
2022-08-05T18:02:48.725Z,32.68
2022-08-05T18:06:52.097Z,32.61
2022-08-05T18:10:56.227Z,32.50
2022-08-05T18:15:02.519Z,32.41
2022-08-05T18:19:07.514Z,32.29
2022-08-05T18:23:12.139Z,32.17
2022-08-05T18:27:18.943Z,32.04
2022-08-05T18:31:25.026Z,31.92
2022-08-05T18:36:01.006Z,31.77
2022-08-05T18:40:34.663Z,31.58
2022-08-05T18:44:15.327Z,31.40
2022-08-05T18:48:41.516Z,31.25
2022-08-05T18:52:50.959Z,31.09
2022-08-05T18:56:57.144Z,31.00
2022-08-05T19:01:01.378Z,30.95
2022-08-05T19:06:05.449Z,30.93
2022-08-05T19:09:40.229Z,30.93
2022-08-05T19:13:47.869Z,30.93
2022-08-05T19:17:59.868Z,30.93
2022-08-05T19:22:17.060Z,30.94
2022-08-05T19:26:22.933Z,30.91
2022-08-05T19:30:28.897Z,30.87
2022-08-05T19:34:32.001Z,30.82
2022-08-05T19:38:37.364Z,30.76
2022-08-05T19:42:41.267Z,30.70
2022-08-05T19:46:44.972Z,30.65
2022-08-05T19:50:48.795Z,30.57
2022-08-05T19:54:56.724Z,30.51
2022-08-05T19:59:54.600Z,30.44
2022-08-05T20:03:27.552Z,30.33
2022-08-05T20:07:48.090Z,30.22
2022-08-05T20:11:54.050Z,30.12
2022-08-05T20:15:57.879Z,30.03
2022-08-05T20:20:05.349Z,29.96
2022-08-05T20:24:12.583Z,29.86
2022-08-05T20:28:20.696Z,29.76
2022-08-05T20:32:27.089Z,29.67
2022-08-05T20:36:30.917Z,29.61
2022-08-05T20:40:36.720Z,29.53
2022-08-05T20:44:41.555Z,29.49
2022-08-05T20:48:44.588Z,29.44
2022-08-05T20:52:49.893Z,29.41
2022-08-05T20:56:59.480Z,29.40
2022-08-05T21:01:09.191Z,29.40
2022-08-05T21:05:12.254Z,29.37
2022-08-05T21:09:16.508Z,29.37
2022-08-05T21:13:36.796Z,29.35
2022-08-05T21:17:44.649Z,29.34
2022-08-05T21:21:51.418Z,29.28
2022-08-05T21:25:55.493Z,29.18
2022-08-05T21:30:01.948Z,29.09
2022-08-05T21:34:07.420Z,29.02
2022-08-05T21:38:11.152Z,28.91
2022-08-05T21:42:30.802Z,28.81
2022-08-05T21:46:39.716Z,28.68
2022-08-05T21:50:54.163Z,28.53
2022-08-05T21:55:06.367Z,28.40
2022-08-05T21:59:24.322Z,28.26
2022-08-05T22:03:49.064Z,28.14
2022-08-05T22:07:58.750Z,28.05
2022-08-05T22:12:03.403Z,27.99
2022-08-05T22:16:40.406Z,27.91
2022-08-05T22:20:38.908Z,27.90
2022-08-05T22:25:02.044Z,27.92
2022-08-05T22:29:06.179Z,27.95
2022-08-05T22:33:15.484Z,28.03
2022-08-05T22:37:19.761Z,28.09
2022-08-05T22:42:04.894Z,28.14
2022-08-05T22:45:48.890Z,28.18
2022-08-05T22:50:22.839Z,28.19
2022-08-05T22:54:16.833Z,28.18
2022-08-05T22:58:28.495Z,28.14
2022-08-05T23:02:32.884Z,28.11
2022-08-05T23:06:36.744Z,28.09
2022-08-05T23:10:40.888Z,28.08
2022-08-05T23:14:46.049Z,28.03
2022-08-05T23:18:49.516Z,27.96
2022-08-05T23:22:56.130Z,27.94
2022-08-05T23:27:00.112Z,27.93
2022-08-05T23:31:17.560Z,27.92
2022-08-05T23:35:21.485Z,27.86
2022-08-05T23:39:44.417Z,27.63
2022-08-05T23:44:06.083Z,27.38
2022-08-05T23:48:13.719Z,27.05
2022-08-05T23:52:30.768Z,26.76
2022-08-05T23:56:34.819Z,26.51
